sensor_id;sensor_type;location;lat;lon;timestamp;temperature;humidity
31113;DHT22;17763;48.730;9.136;2024-01-27T00:01:53;4.40;99.90
31113;DHT22;17763;48.730;9.136;2024-01-27T00:04:21;4.40;99.90
31113;DHT22;17763;48.730;9.136;2024-01-27T00:06:47;4.40;99.90
31113;DHT22;17763;48.730;9.136;2024-01-27T00:09:15;4.40;99.90
31113;DHT22;17763;48.730;9.136;2024-01-27T00:11:40;4.40;99.90
31113;DHT22;17763;48.730;9.136;2024-01-27T00:14:06;4.50;99.90
31113;DHT22;17763;48.730;9.136;2024-01-27T00:16:32;4.40;99.90
31113;DHT22;17763;48.730;9.136;2024-01-27T00:18:58;4.40;99.90
31113;DHT22;17763;48.730;9.136;2024-01-27T00:21:28;4.30;99.90
31113;DHT22;17763;48.730;9.136;2024-01-27T00:23:54;4.30;99.90
31113;DHT22;17763;48.730;9.136;2024-01-27T00:26:22;4.20;99.90
31113;DHT22;17763;48.730;9.136;2024-01-27T00:28:48;4.20;99.90
31113;DHT22;17763;48.730;9.136;2024-01-27T00:31:13;4.20;99.90
31113;DHT22;17763;48.730;9.136;2024-01-27T00:33:39;4.20;99.90
31113;DHT22;17763;48.730;9.136;2024-01-27T00:36:05;4.20;99.90
31113;DHT22;17763;48.730;9.136;2024-01-27T00:38:33;4.10;99.90
31113;DHT22;17763;48.730;9.136;2024-01-27T00:40:59;4.10;99.90
31113;DHT22;17763;48.730;9.136;2024-01-27T00:43:24;4.00;99.90
31113;DHT22;17763;48.730;9.136;2024-01-27T00:45:50;4.00;99.90
31113;DHT22;17763;48.730;9.136;2024-01-27T00:48:16;4.00;99.90
31113;DHT22;17763;48.730;9.136;2024-01-27T00:50:41;4.00;99.90
31113;DHT22;17763;48.730;9.136;2024-01-27T00:53:07;3.90;99.90
31113;DHT22;17763;48.730;9.136;2024-01-27T00:55:33;3.90;99.90
31113;DHT22;17763;48.730;9.136;2024-01-27T00:57:58;3.90;99.90
31113;DHT22;17763;48.730;9.136;2024-01-27T01:00:24;3.80;99.90
31113;DHT22;17763;48.730;9.136;2024-01-27T01:02:54;3.80;99.90
31113;DHT22;17763;48.730;9.136;2024-01-27T01:05:20;3.80;99.90
31113;DHT22;17763;48.730;9.136;2024-01-27T01:07:46;3.80;99.90
31113;DHT22;17763;48.730;9.136;2024-01-27T01:10:14;3.70;99.90
31113;DHT22;17763;48.730;9.136;2024-01-27T01:12:40;3.70;99.90
31113;DHT22;17763;48.730;9.136;2024-01-27T01:15:10;3.70;99.90
31113;DHT22;17763;48.730;9.136;2024-01-27T01:17:38;3.60;99.90
31113;DHT22;17763;48.730;9.136;2024-01-27T01:20:07;3.60;99.90
31113;DHT22;17763;48.730;9.136;2024-01-27T01:22:35;3.60;99.90
31113;DHT22;17763;48.730;9.136;2024-01-27T01:25:03;3.60;99.90
31113;DHT22;17763;48.730;9.136;2024-01-27T01:27:29;3.60;99.90
31113;DHT22;17763;48.730;9.136;2024-01-27T01:29:54;3.60;99.90
31113;DHT22;17763;48.730;9.136;2024-01-27T01:32:20;3.50;99.90
31113;DHT22;17763;48.730;9.136;2024-01-27T01:34:47;3.60;99.90
31113;DHT22;17763;48.730;9.136;2024-01-27T01:37:13;3.50;99.90
31113;DHT22;17763;48.730;9.136;2024-01-27T01:39:39;3.50;99.90
31113;DHT22;17763;48.730;9.136;2024-01-27T01:42:04;3.50;99.90
31113;DHT22;17763;48.730;9.136;2024-01-27T01:44:30;3.50;99.90
31113;DHT22;17763;48.730;9.136;2024-01-27T01:47:01;3.50;99.90
31113;DHT22;17763;48.730;9.136;2024-01-27T01:49:28;3.40;99.90
31113;DHT22;17763;48.730;9.136;2024-01-27T01:51:54;3.40;99.90
31113;DHT22;17763;48.730;9.136;2024-01-27T01:54:22;3.50;99.90
31113;DHT22;17763;48.730;9.136;2024-01-27T01:56:54;3.40;99.90
31113;DHT22;17763;48.730;9.136;2024-01-27T01:59:23;3.40;99.90
31113;DHT22;17763;48.730;9.136;2024-01-27T02:01:49;3.40;99.90
31113;DHT22;17763;48.730;9.136;2024-01-27T02:04:14;3.40;99.90
31113;DHT22;17763;48.730;9.136;2024-01-27T02:06:40;3.30;99.90
31113;DHT22;17763;48.730;9.136;2024-01-27T02:09:10;3.30;99.90
31113;DHT22;17763;48.730;9.136;2024-01-27T02:11:36;3.30;99.90
31113;DHT22;17763;48.730;9.136;2024-01-27T02:14:04;3.30;99.90
31113;DHT22;17763;48.730;9.136;2024-01-27T02:16:32;3.30;99.90
31113;DHT22;17763;48.730;9.136;2024-01-27T02:18:58;3.20;99.90
31113;DHT22;17763;48.730;9.136;2024-01-27T02:21:24;3.30;99.90
31113;DHT22;17763;48.730;9.136;2024-01-27T02:23:51;3.30;99.90
31113;DHT22;17763;48.730;9.136;2024-01-27T02:26:17;3.30;99.90
31113;DHT22;17763;48.730;9.136;2024-01-27T02:28:43;3.20;99.90
31113;DHT22;17763;48.730;9.136;2024-01-27T02:31:10;3.20;99.90
31113;DHT22;17763;48.730;9.136;2024-01-27T02:33:36;3.10;99.90
31113;DHT22;17763;48.730;9.136;2024-01-27T02:36:02;3.10;99.90
31113;DHT22;17763;48.730;9.136;2024-01-27T02:38:30;3.10;99.90
31113;DHT22;17763;48.730;9.136;2024-01-27T02:40:58;3.10;99.90
31113;DHT22;17763;48.730;9.136;2024-01-27T02:43:26;3.00;99.90
31113;DHT22;17763;48.730;9.136;2024-01-27T02:45:51;3.10;99.90
31113;DHT22;17763;48.730;9.136;2024-01-27T02:48:17;3.00;99.90
31113;DHT22;17763;48.730;9.136;2024-01-27T02:50:43;3.00;99.90
31113;DHT22;17763;48.730;9.136;2024-01-27T02:53:08;3.00;99.90
31113;DHT22;17763;48.730;9.136;2024-01-27T02:55:34;3.00;99.90
31113;DHT22;17763;48.730;9.136;2024-01-27T02:58:00;2.90;99.90
31113;DHT22;17763;48.730;9.136;2024-01-27T03:00:25;2.90;99.90
31113;DHT22;17763;48.730;9.136;2024-01-27T03:02:51;2.90;99.90
31113;DHT22;17763;48.730;9.136;2024-01-27T03:05:17;2.90;99.90
31113;DHT22;17763;48.730;9.136;2024-01-27T03:07:42;2.90;99.90
31113;DHT22;17763;48.730;9.136;2024-01-27T03:10:08;2.90;99.90
31113;DHT22;17763;48.730;9.136;2024-01-27T03:12:34;2.90;99.90
31113;DHT22;17763;48.730;9.136;2024-01-27T03:15:02;2.90;99.90
31113;DHT22;17763;48.730;9.136;2024-01-27T03:17:31;2.90;99.90
31113;DHT22;17763;48.730;9.136;2024-01-27T03:19:56;2.80;99.90
31113;DHT22;17763;48.730;9.136;2024-01-27T03:22:22;2.80;99.90
31113;DHT22;17763;48.730;9.136;2024-01-27T03:24:50;2.70;99.90
31113;DHT22;17763;48.730;9.136;2024-01-27T03:27:17;2.60;99.90
31113;DHT22;17763;48.730;9.136;2024-01-27T03:29:45;2.60;99.90
31113;DHT22;17763;48.730;9.136;2024-01-27T03:32:11;2.50;99.90
31113;DHT22;17763;48.730;9.136;2024-01-27T03:34:43;2.50;99.90
31113;DHT22;17763;48.730;9.136;2024-01-27T03:37:09;2.50;99.90
31113;DHT22;17763;48.730;9.136;2024-01-27T03:39:37;2.40;99.90
31113;DHT22;17763;48.730;9.136;2024-01-27T03:42:03;2.40;99.90
31113;DHT22;17763;48.730;9.136;2024-01-27T03:44:31;2.30;99.90
31113;DHT22;17763;48.730;9.136;2024-01-27T03:46:57;2.30;99.90
31113;DHT22;17763;48.730;9.136;2024-01-27T03:49:23;2.30;99.90
31113;DHT22;17763;48.730;9.136;2024-01-27T03:51:48;2.40;99.90
31113;DHT22;17763;48.730;9.136;2024-01-27T03:54:14;2.40;99.90
31113;DHT22;17763;48.730;9.136;2024-01-27T03:56:44;2.40;99.90
31113;DHT22;17763;48.730;9.136;2024-01-27T03:59:10;2.40;99.90
31113;DHT22;17763;48.730;9.136;2024-01-27T04:01:36;2.50;99.90
31113;DHT22;17763;48.730;9.136;2024-01-27T04:04:02;2.50;99.90
31113;DHT22;17763;48.730;9.136;2024-01-27T04:06:28;2.50;99.90
31113;DHT22;17763;48.730;9.136;2024-01-27T04:08:54;2.50;99.90
31113;DHT22;17763;48.730;9.136;2024-01-27T04:11:22;2.60;99.90
31113;DHT22;17763;48.730;9.136;2024-01-27T04:13:49;2.60;99.90
31113;DHT22;17763;48.730;9.136;2024-01-27T04:16:16;2.60;99.90
31113;DHT22;17763;48.730;9.136;2024-01-27T04:18:42;2.60;99.90
31113;DHT22;17763;48.730;9.136;2024-01-27T04:21:08;2.60;99.90
31113;DHT22;17763;48.730;9.136;2024-01-27T04:23:35;2.70;99.90
31113;DHT22;17763;48.730;9.136;2024-01-27T04:26:01;2.70;99.90
31113;DHT22;17763;48.730;9.136;2024-01-27T04:28:27;2.60;99.90
31113;DHT22;17763;48.730;9.136;2024-01-27T04:30:55;2.60;99.90
31113;DHT22;17763;48.730;9.136;2024-01-27T04:33:21;2.60;99.90
31113;DHT22;17763;48.730;9.136;2024-01-27T04:35:47;2.60;99.90
31113;DHT22;17763;48.730;9.136;2024-01-27T04:38:12;2.60;99.90
31113;DHT22;17763;48.730;9.136;2024-01-27T04:40:40;2.60;99.90
31113;DHT22;17763;48.730;9.136;2024-01-27T04:43:06;2.60;99.90
31113;DHT22;17763;48.730;9.136;2024-01-27T04:45:31;2.60;99.90
31113;DHT22;17763;48.730;9.136;2024-01-27T04:47:59;2.60;99.90
31113;DHT22;17763;48.730;9.136;2024-01-27T04:50:26;2.60;99.90
31113;DHT22;17763;48.730;9.136;2024-01-27T04:52:52;2.70;99.90
31113;DHT22;17763;48.730;9.136;2024-01-27T04:55:18;2.70;99.90
31113;DHT22;17763;48.730;9.136;2024-01-27T04:57:44;2.70;99.90
31113;DHT22;17763;48.730;9.136;2024-01-27T05:00:10;2.70;99.90
31113;DHT22;17763;48.730;9.136;2024-01-27T05:02:40;2.60;99.90
31113;DHT22;17763;48.730;9.136;2024-01-27T05:05:07;2.60;99.90
31113;DHT22;17763;48.730;9.136;2024-01-27T05:07:33;2.60;99.90
31113;DHT22;17763;48.730;9.136;2024-01-27T05:09:59;2.60;99.90
31113;DHT22;17763;48.730;9.136;2024-01-27T05:12:27;2.50;99.90
31113;DHT22;17763;48.730;9.136;2024-01-27T05:14:52;2.50;99.90
31113;DHT22;17763;48.730;9.136;2024-01-27T05:17:18;2.60;99.90
31113;DHT22;17763;48.730;9.136;2024-01-27T05:19:44;2.50;99.90
31113;DHT22;17763;48.730;9.136;2024-01-27T05:22:09;2.50;99.90
31113;DHT22;17763;48.730;9.136;2024-01-27T05:24:35;2.50;99.90
31113;DHT22;17763;48.730;9.136;2024-01-27T05:27:01;2.40;99.90
31113;DHT22;17763;48.730;9.136;2024-01-27T05:29:27;2.40;99.90
31113;DHT22;17763;48.730;9.136;2024-01-27T05:31:55;2.40;99.90
31113;DHT22;17763;48.730;9.136;2024-01-27T05:34:23;2.40;99.90
31113;DHT22;17763;48.730;9.136;2024-01-27T05:36:51;2.40;99.90
31113;DHT22;17763;48.730;9.136;2024-01-27T05:39:17;2.40;99.90
31113;DHT22;17763;48.730;9.136;2024-01-27T05:41:43;2.30;99.90
31113;DHT22;17763;48.730;9.136;2024-01-27T05:44:08;2.20;99.90
31113;DHT22;17763;48.730;9.136;2024-01-27T05:46:34;2.20;99.90
31113;DHT22;17763;48.730;9.136;2024-01-27T05:49:02;2.10;99.90
31113;DHT22;17763;48.730;9.136;2024-01-27T05:51:29;2.20;99.90
31113;DHT22;17763;48.730;9.136;2024-01-27T05:54:01;2.10;99.90
31113;DHT22;17763;48.730;9.136;2024-01-27T05:56:30;2.10;99.90
31113;DHT22;17763;48.730;9.136;2024-01-27T05:58:56;2.10;99.90
31113;DHT22;17763;48.730;9.136;2024-01-27T06:01:21;2.10;99.90
31113;DHT22;17763;48.730;9.136;2024-01-27T06:03:50;2.10;99.90
31113;DHT22;17763;48.730;9.136;2024-01-27T06:06:16;2.00;99.90
31113;DHT22;17763;48.730;9.136;2024-01-27T06:08:44;2.00;99.90
31113;DHT22;17763;48.730;9.136;2024-01-27T06:11:10;2.00;99.90
31113;DHT22;17763;48.730;9.136;2024-01-27T06:13:35;1.90;99.90
31113;DHT22;17763;48.730;9.136;2024-01-27T06:16:06;2.00;99.90
31113;DHT22;17763;48.730;9.136;2024-01-27T06:18:34;1.90;99.90
31113;DHT22;17763;48.730;9.136;2024-01-27T06:21:00;1.90;99.90
31113;DHT22;17763;48.730;9.136;2024-01-27T06:23:25;1.90;99.90
31113;DHT22;17763;48.730;9.136;2024-01-27T06:25:52;1.90;99.90
31113;DHT22;17763;48.730;9.136;2024-01-27T06:28:17;1.90;99.90
31113;DHT22;17763;48.730;9.136;2024-01-27T06:30:43;2.00;99.90
31113;DHT22;17763;48.730;9.136;2024-01-27T06:33:11;1.90;99.90
31113;DHT22;17763;48.730;9.136;2024-01-27T06:35:37;1.90;99.90
31113;DHT22;17763;48.730;9.136;2024-01-27T06:38:02;2.00;99.90
31113;DHT22;17763;48.730;9.136;2024-01-27T06:40:30;2.00;99.90
31113;DHT22;17763;48.730;9.136;2024-01-27T06:42:58;1.90;99.90
31113;DHT22;17763;48.730;9.136;2024-01-27T06:45:24;1.90;99.90
31113;DHT22;17763;48.730;9.136;2024-01-27T06:47:49;1.90;99.90
31113;DHT22;17763;48.730;9.136;2024-01-27T06:50:15;2.00;99.90
31113;DHT22;17763;48.730;9.136;2024-01-27T06:52:43;2.00;99.90
31113;DHT22;17763;48.730;9.136;2024-01-27T06:55:09;2.00;99.90
31113;DHT22;17763;48.730;9.136;2024-01-27T06:57:36;2.00;99.90
31113;DHT22;17763;48.730;9.136;2024-01-27T07:00:01;2.00;99.90
31113;DHT22;17763;48.730;9.136;2024-01-27T07:02:28;2.00;99.90
31113;DHT22;17763;48.730;9.136;2024-01-27T07:04:55;2.00;99.90
31113;DHT22;17763;48.730;9.136;2024-01-27T07:07:26;2.00;99.90
31113;DHT22;17763;48.730;9.136;2024-01-27T07:09:56;2.00;99.90
31113;DHT22;17763;48.730;9.136;2024-01-27T07:12:21;2.00;99.90
31113;DHT22;17763;48.730;9.136;2024-01-27T07:14:47;2.00;99.90
31113;DHT22;17763;48.730;9.136;2024-01-27T07:17:15;2.10;99.90
31113;DHT22;17763;48.730;9.136;2024-01-27T07:19:43;2.10;99.90
31113;DHT22;17763;48.730;9.136;2024-01-27T07:22:09;2.10;99.90
31113;DHT22;17763;48.730;9.136;2024-01-27T07:24:38;2.20;99.90
31113;DHT22;17763;48.730;9.136;2024-01-27T07:27:11;2.30;99.90
31113;DHT22;17763;48.730;9.136;2024-01-27T07:29:37;2.30;99.90
31113;DHT22;17763;48.730;9.136;2024-01-27T07:32:03;2.30;99.90
31113;DHT22;17763;48.730;9.136;2024-01-27T07:34:29;2.40;99.90
31113;DHT22;17763;48.730;9.136;2024-01-27T07:36:54;2.40;99.90
31113;DHT22;17763;48.730;9.136;2024-01-27T07:39:20;2.50;99.90
31113;DHT22;17763;48.730;9.136;2024-01-27T07:41:46;2.60;99.90
31113;DHT22;17763;48.730;9.136;2024-01-27T07:44:14;2.60;99.90
31113;DHT22;17763;48.730;9.136;2024-01-27T07:46:41;2.70;99.90
31113;DHT22;17763;48.730;9.136;2024-01-27T07:49:09;2.80;99.90
31113;DHT22;17763;48.730;9.136;2024-01-27T07:51:38;2.90;99.90
31113;DHT22;17763;48.730;9.136;2024-01-27T07:54:06;2.90;99.90
31113;DHT22;17763;48.730;9.136;2024-01-27T07:56:34;3.10;99.90
31113;DHT22;17763;48.730;9.136;2024-01-27T07:58:59;3.10;99.90
31113;DHT22;17763;48.730;9.136;2024-01-27T08:01:27;3.20;99.90
31113;DHT22;17763;48.730;9.136;2024-01-27T08:03:53;3.30;99.90
31113;DHT22;17763;48.730;9.136;2024-01-27T08:06:26;3.30;99.90
31113;DHT22;17763;48.730;9.136;2024-01-27T08:08:52;3.40;99.90
31113;DHT22;17763;48.730;9.136;2024-01-27T08:11:18;3.40;99.90
31113;DHT22;17763;48.730;9.136;2024-01-27T08:13:43;3.40;99.90
31113;DHT22;17763;48.730;9.136;2024-01-27T08:16:12;3.60;99.90
31113;DHT22;17763;48.730;9.136;2024-01-27T08:18:40;3.70;99.90
31113;DHT22;17763;48.730;9.136;2024-01-27T08:21:08;3.80;99.90
31113;DHT22;17763;48.730;9.136;2024-01-27T08:23:36;3.90;99.90
31113;DHT22;17763;48.730;9.136;2024-01-27T08:26:02;4.00;99.90
31113;DHT22;17763;48.730;9.136;2024-01-27T08:28:30;4.10;99.90
31113;DHT22;17763;48.730;9.136;2024-01-27T08:30:56;4.20;99.90
31113;DHT22;17763;48.730;9.136;2024-01-27T08:33:21;4.30;99.90
31113;DHT22;17763;48.730;9.136;2024-01-27T08:35:47;4.40;99.90
31113;DHT22;17763;48.730;9.136;2024-01-27T08:38:19;4.50;99.90
31113;DHT22;17763;48.730;9.136;2024-01-27T08:40:45;4.50;99.90
31113;DHT22;17763;48.730;9.136;2024-01-27T08:43:10;4.60;99.90
31113;DHT22;17763;48.730;9.136;2024-01-27T08:45:38;4.70;99.90
31113;DHT22;17763;48.730;9.136;2024-01-27T08:48:07;4.70;99.90
31113;DHT22;17763;48.730;9.136;2024-01-27T08:50:35;4.70;99.90
31113;DHT22;17763;48.730;9.136;2024-01-27T08:53:01;4.80;99.90
31113;DHT22;17763;48.730;9.136;2024-01-27T08:55:29;4.70;99.90
31113;DHT22;17763;48.730;9.136;2024-01-27T08:57:56;4.80;99.90
31113;DHT22;17763;48.730;9.136;2024-01-27T09:00:22;4.80;99.90
31113;DHT22;17763;48.730;9.136;2024-01-27T09:02:49;4.90;99.90
31113;DHT22;17763;48.730;9.136;2024-01-27T09:05:15;4.90;99.90
31113;DHT22;17763;48.730;9.136;2024-01-27T09:07:40;4.90;99.90
31113;DHT22;17763;48.730;9.136;2024-01-27T09:10:06;4.90;99.90
31113;DHT22;17763;48.730;9.136;2024-01-27T09:12:33;5.00;99.90
31113;DHT22;17763;48.730;9.136;2024-01-27T09:14:58;5.10;99.90
31113;DHT22;17763;48.730;9.136;2024-01-27T09:17:24;5.20;99.90
31113;DHT22;17763;48.730;9.136;2024-01-27T09:19:50;5.30;99.90
31113;DHT22;17763;48.730;9.136;2024-01-27T09:22:18;5.30;99.90
31113;DHT22;17763;48.730;9.136;2024-01-27T09:24:44;5.30;99.90
31113;DHT22;17763;48.730;9.136;2024-01-27T09:27:10;5.30;99.90
31113;DHT22;17763;48.730;9.136;2024-01-27T09:29:36;5.40;99.90
31113;DHT22;17763;48.730;9.136;2024-01-27T09:32:02;5.50;99.90
31113;DHT22;17763;48.730;9.136;2024-01-27T09:34:28;5.60;99.90
31113;DHT22;17763;48.730;9.136;2024-01-27T09:36:56;5.70;99.90
31113;DHT22;17763;48.730;9.136;2024-01-27T09:39:22;5.80;99.90
31113;DHT22;17763;48.730;9.136;2024-01-27T09:41:48;5.90;99.90
31113;DHT22;17763;48.730;9.136;2024-01-27T09:44:18;5.90;99.90
31113;DHT22;17763;48.730;9.136;2024-01-27T09:46:45;6.00;99.90
31113;DHT22;17763;48.730;9.136;2024-01-27T09:49:14;6.00;99.90
31113;DHT22;17763;48.730;9.136;2024-01-27T09:51:41;6.10;99.90
31113;DHT22;17763;48.730;9.136;2024-01-27T09:54:07;6.20;99.90
31113;DHT22;17763;48.730;9.136;2024-01-27T09:56:33;6.20;99.90
31113;DHT22;17763;48.730;9.136;2024-01-27T09:59:00;6.30;99.90
31113;DHT22;17763;48.730;9.136;2024-01-27T10:01:27;6.40;99.90
31113;DHT22;17763;48.730;9.136;2024-01-27T10:03:54;6.40;99.90
31113;DHT22;17763;48.730;9.136;2024-01-27T10:06:20;6.50;99.90
31113;DHT22;17763;48.730;9.136;2024-01-27T10:08:56;6.60;99.90
31113;DHT22;17763;48.730;9.136;2024-01-27T10:11:27;6.70;99.90
31113;DHT22;17763;48.730;9.136;2024-01-27T10:13:54;6.80;99.90
31113;DHT22;17763;48.730;9.136;2024-01-27T10:16:25;6.80;99.90
31113;DHT22;17763;48.730;9.136;2024-01-27T10:19:03;6.80;99.90
31113;DHT22;17763;48.730;9.136;2024-01-27T10:21:29;6.70;99.90
31113;DHT22;17763;48.730;9.136;2024-01-27T10:23:59;6.70;99.90
31113;DHT22;17763;48.730;9.136;2024-01-27T10:26:32;6.70;99.90
31113;DHT22;17763;48.730;9.136;2024-01-27T10:29:01;6.80;99.90
31113;DHT22;17763;48.730;9.136;2024-01-27T10:31:33;6.70;99.90
31113;DHT22;17763;48.730;9.136;2024-01-27T10:33:59;6.80;99.90
31113;DHT22;17763;48.730;9.136;2024-01-27T10:36:38;6.80;99.90
31113;DHT22;17763;48.730;9.136;2024-01-27T10:39:23;6.80;99.90
31113;DHT22;17763;48.730;9.136;2024-01-27T10:41:50;6.70;99.90
31113;DHT22;17763;48.730;9.136;2024-01-27T10:44:17;6.70;99.90
31113;DHT22;17763;48.730;9.136;2024-01-27T10:46:48;6.70;99.90
31113;DHT22;17763;48.730;9.136;2024-01-27T10:49:16;6.70;99.90
31113;DHT22;17763;48.730;9.136;2024-01-27T10:51:47;6.90;99.90
31113;DHT22;17763;48.730;9.136;2024-01-27T10:54:25;6.80;99.90
31113;DHT22;17763;48.730;9.136;2024-01-27T10:56:55;6.80;99.90
31113;DHT22;17763;48.730;9.136;2024-01-27T10:59:21;6.80;99.90
31113;DHT22;17763;48.730;9.136;2024-01-27T11:01:49;6.80;99.90
31113;DHT22;17763;48.730;9.136;2024-01-27T11:04:19;6.80;99.90
31113;DHT22;17763;48.730;9.136;2024-01-27T11:06:47;6.70;99.90
31113;DHT22;17763;48.730;9.136;2024-01-27T11:09:14;6.70;99.90
31113;DHT22;17763;48.730;9.136;2024-01-27T11:11:43;6.80;99.90
31113;DHT22;17763;48.730;9.136;2024-01-27T11:14:10;6.80;99.90
31113;DHT22;17763;48.730;9.136;2024-01-27T11:16:36;6.80;99.90
31113;DHT22;17763;48.730;9.136;2024-01-27T11:19:10;6.70;99.90
31113;DHT22;17763;48.730;9.136;2024-01-27T11:21:40;6.80;99.90
31113;DHT22;17763;48.730;9.136;2024-01-27T11:24:16;6.70;99.90
31113;DHT22;17763;48.730;9.136;2024-01-27T11:26:45;6.70;99.90
31113;DHT22;17763;48.730;9.136;2024-01-27T11:29:12;6.70;99.90
31113;DHT22;17763;48.730;9.136;2024-01-27T11:31:45;6.80;99.90
31113;DHT22;17763;48.730;9.136;2024-01-27T11:34:11;6.80;99.90
31113;DHT22;17763;48.730;9.136;2024-01-27T11:36:43;6.80;99.90
31113;DHT22;17763;48.730;9.136;2024-01-27T11:39:29;6.80;99.90
31113;DHT22;17763;48.730;9.136;2024-01-27T11:42:07;6.80;99.90
31113;DHT22;17763;48.730;9.136;2024-01-27T11:44:37;6.80;99.90
31113;DHT22;17763;48.730;9.136;2024-01-27T11:47:03;6.80;99.90
31113;DHT22;17763;48.730;9.136;2024-01-27T11:49:33;6.80;99.90
31113;DHT22;17763;48.730;9.136;2024-01-27T11:51:58;6.80;99.90
31113;DHT22;17763;48.730;9.136;2024-01-27T11:54:24;6.80;99.90
31113;DHT22;17763;48.730;9.136;2024-01-27T11:56:50;6.80;99.90
31113;DHT22;17763;48.730;9.136;2024-01-27T11:59:16;6.70;99.90
31113;DHT22;17763;48.730;9.136;2024-01-27T12:01:44;6.70;99.90
31113;DHT22;17763;48.730;9.136;2024-01-27T12:04:10;6.70;99.90
31113;DHT22;17763;48.730;9.136;2024-01-27T12:06:36;6.70;99.90
31113;DHT22;17763;48.730;9.136;2024-01-27T12:09:05;6.80;99.90
31113;DHT22;17763;48.730;9.136;2024-01-27T12:11:38;6.80;99.90
31113;DHT22;17763;48.730;9.136;2024-01-27T12:14:04;6.80;99.90
31113;DHT22;17763;48.730;9.136;2024-01-27T12:16:32;6.80;99.90
31113;DHT22;17763;48.730;9.136;2024-01-27T12:19:00;6.80;99.90
31113;DHT22;17763;48.730;9.136;2024-01-27T12:21:26;6.90;99.90
31113;DHT22;17763;48.730;9.136;2024-01-27T12:23:55;6.80;99.90
31113;DHT22;17763;48.730;9.136;2024-01-27T12:26:25;6.80;99.90
31113;DHT22;17763;48.730;9.136;2024-01-27T12:28:51;6.80;99.90
31113;DHT22;17763;48.730;9.136;2024-01-27T12:31:17;6.80;99.90
31113;DHT22;17763;48.730;9.136;2024-01-27T12:33:56;6.90;99.90
31113;DHT22;17763;48.730;9.136;2024-01-27T12:36:22;6.90;99.90
31113;DHT22;17763;48.730;9.136;2024-01-27T12:39:08;6.90;99.90
31113;DHT22;17763;48.730;9.136;2024-01-27T12:41:35;7.00;99.90
31113;DHT22;17763;48.730;9.136;2024-01-27T12:44:01;7.00;99.90
31113;DHT22;17763;48.730;9.136;2024-01-27T12:46:29;7.00;99.90
31113;DHT22;17763;48.730;9.136;2024-01-27T12:48:55;7.10;99.90
31113;DHT22;17763;48.730;9.136;2024-01-27T12:51:20;7.10;99.90
31113;DHT22;17763;48.730;9.136;2024-01-27T12:53:46;7.20;99.90
31113;DHT22;17763;48.730;9.136;2024-01-27T12:56:13;7.20;99.90
31113;DHT22;17763;48.730;9.136;2024-01-27T12:58:42;7.20;99.90
31113;DHT22;17763;48.730;9.136;2024-01-27T13:01:08;7.20;99.90
31113;DHT22;17763;48.730;9.136;2024-01-27T13:03:37;7.20;99.90
31113;DHT22;17763;48.730;9.136;2024-01-27T13:06:05;7.30;99.50
31113;DHT22;17763;48.730;9.136;2024-01-27T13:08:31;7.30;98.80
31113;DHT22;17763;48.730;9.136;2024-01-27T13:10:56;7.30;98.50
31113;DHT22;17763;48.730;9.136;2024-01-27T13:13:22;7.30;98.30
31113;DHT22;17763;48.730;9.136;2024-01-27T13:15:48;7.40;98.40
31113;DHT22;17763;48.730;9.136;2024-01-27T13:18:13;7.50;98.10
31113;DHT22;17763;48.730;9.136;2024-01-27T13:20:39;7.50;97.00
31113;DHT22;17763;48.730;9.136;2024-01-27T13:23:07;7.60;96.50
31113;DHT22;17763;48.730;9.136;2024-01-27T13:25:33;7.60;95.90
31113;DHT22;17763;48.730;9.136;2024-01-27T13:28:01;7.70;95.50
31113;DHT22;17763;48.730;9.136;2024-01-27T13:30:27;7.80;95.00
31113;DHT22;17763;48.730;9.136;2024-01-27T13:32:54;7.80;94.00
31113;DHT22;17763;48.730;9.136;2024-01-27T13:35:21;7.90;93.50
31113;DHT22;17763;48.730;9.136;2024-01-27T13:37:47;7.90;92.80
31113;DHT22;17763;48.730;9.136;2024-01-27T13:40:13;8.00;91.70
31113;DHT22;17763;48.730;9.136;2024-01-27T13:42:43;8.00;91.20
31113;DHT22;17763;48.730;9.136;2024-01-27T13:45:09;8.10;91.10
31113;DHT22;17763;48.730;9.136;2024-01-27T13:47:36;8.10;90.70
31113;DHT22;17763;48.730;9.136;2024-01-27T13:50:05;8.20;90.70
31113;DHT22;17763;48.730;9.136;2024-01-27T13:52:31;8.20;90.50
31113;DHT22;17763;48.730;9.136;2024-01-27T13:54:57;8.20;90.30
31113;DHT22;17763;48.730;9.136;2024-01-27T13:57:23;8.20;90.20
31113;DHT22;17763;48.730;9.136;2024-01-27T13:59:51;8.20;90.00
31113;DHT22;17763;48.730;9.136;2024-01-27T14:02:17;8.00;90.20
31113;DHT22;17763;48.730;9.136;2024-01-27T14:04:44;7.90;90.70
31113;DHT22;17763;48.730;9.136;2024-01-27T14:07:10;7.90;91.00
31113;DHT22;17763;48.730;9.136;2024-01-27T14:09:36;8.00;91.00
31113;DHT22;17763;48.730;9.136;2024-01-27T14:12:04;8.00;91.10
31113;DHT22;17763;48.730;9.136;2024-01-27T14:14:30;7.90;90.80
31113;DHT22;17763;48.730;9.136;2024-01-27T14:16:57;8.00;90.80
31113;DHT22;17763;48.730;9.136;2024-01-27T14:19:22;8.10;90.70
31113;DHT22;17763;48.730;9.136;2024-01-27T14:21:48;8.10;90.60
31113;DHT22;17763;48.730;9.136;2024-01-27T14:24:14;8.00;90.10
31113;DHT22;17763;48.730;9.136;2024-01-27T14:26:42;8.00;90.00
31113;DHT22;17763;48.730;9.136;2024-01-27T14:29:07;7.90;90.20
31113;DHT22;17763;48.730;9.136;2024-01-27T14:31:33;8.00;90.50
31113;DHT22;17763;48.730;9.136;2024-01-27T14:33:59;8.00;90.60
31113;DHT22;17763;48.730;9.136;2024-01-27T14:36:26;8.10;90.50
31113;DHT22;17763;48.730;9.136;2024-01-27T14:38:52;8.10;90.20
31113;DHT22;17763;48.730;9.136;2024-01-27T14:41:18;8.30;90.10
31113;DHT22;17763;48.730;9.136;2024-01-27T14:43:43;8.30;89.90
31113;DHT22;17763;48.730;9.136;2024-01-27T14:46:12;8.30;89.80
31113;DHT22;17763;48.730;9.136;2024-01-27T14:48:38;8.30;89.80
31113;DHT22;17763;48.730;9.136;2024-01-27T14:51:10;8.40;89.90
31113;DHT22;17763;48.730;9.136;2024-01-27T14:53:38;8.30;90.00
31113;DHT22;17763;48.730;9.136;2024-01-27T14:56:04;8.40;90.00
31113;DHT22;17763;48.730;9.136;2024-01-27T14:58:30;8.40;90.00
31113;DHT22;17763;48.730;9.136;2024-01-27T15:00:55;8.40;90.20
31113;DHT22;17763;48.730;9.136;2024-01-27T15:03:24;8.40;89.70
31113;DHT22;17763;48.730;9.136;2024-01-27T15:05:52;8.30;89.40
31113;DHT22;17763;48.730;9.136;2024-01-27T15:08:19;8.30;89.30
31113;DHT22;17763;48.730;9.136;2024-01-27T15:10:45;8.30;89.30
31113;DHT22;17763;48.730;9.136;2024-01-27T15:13:16;8.30;89.20
31113;DHT22;17763;48.730;9.136;2024-01-27T15:15:51;8.30;89.20
31113;DHT22;17763;48.730;9.136;2024-01-27T15:18:17;8.30;89.20
31113;DHT22;17763;48.730;9.136;2024-01-27T15:20:42;8.20;89.50
31113;DHT22;17763;48.730;9.136;2024-01-27T15:23:08;8.20;90.20
31113;DHT22;17763;48.730;9.136;2024-01-27T15:25:33;8.20;90.20
31113;DHT22;17763;48.730;9.136;2024-01-27T15:28:00;8.20;90.30
31113;DHT22;17763;48.730;9.136;2024-01-27T15:30:28;8.10;90.20
31113;DHT22;17763;48.730;9.136;2024-01-27T15:32:54;8.10;90.40
31113;DHT22;17763;48.730;9.136;2024-01-27T15:35:20;8.00;90.60
31113;DHT22;17763;48.730;9.136;2024-01-27T15:37:48;7.90;90.60
31113;DHT22;17763;48.730;9.136;2024-01-27T15:40:13;7.90;90.70
31113;DHT22;17763;48.730;9.136;2024-01-27T15:42:39;7.80;90.70
31113;DHT22;17763;48.730;9.136;2024-01-27T15:45:05;7.70;90.80